Newtonia, Missouri
Current Conditions -  °F | °C
As of 4:15 AM on Saturday 22 Nov 2014 (Local Time) from KHFJ Reporting Station
Overcast Overcast  
Wind Chill: 54°   Ceiling: 2000
Heat Index: 54°   Visibility: 10mi
Dew Point: 46°   Wind: 15mph
Humidity: 77%   Direction: 180°S
Pressure: 30.08"   Gusts: NA
Location:  36.88°N, 94.19°W
Report Text: KHFJ 221015Z AUTO 18013KT 10SM OVC020 12/08 A3008 RMK AO2 LTG DSNT SW
Loading
Personal Weather Stations






























Interactive Weather Map New forecast layout! Learn more

10-Day Weather Forecast

Advertisements
Track Severe Weather on mobile